Time;durP1;ratioP1;P1;durP2;ratioP2;P2;SDS_P1;SDS_P2;PMS_P1;PMS_P2;Temp;Humidity;BMP_temperature;BMP_pressure;BME280_temperature;BME280_humidity;BME280_pressure;Samples;Min_cycle;Max_cycle;Signal;HPM_P1;HPM_P2
2022/11/23 00:00:33;;;;;;;5.05;2.90;;;282.00;2278.40;;;;;;6249982;22;19999;-82
2022/11/23 00:02:59;;;;;;;5.53;2.75;;;281.80;2278.40;;;;;;6250272;22;19995;-81
2022/11/23 00:05:27;;;;;;;6.93;2.88;;;281.80;2278.40;;;;;;6249852;22;20007;-81
2022/11/23 00:07:53;;;;;;;6.35;3.67;;;281.80;2278.40;;;;;;6249940;22;20007;-80
2022/11/23 00:10:21;;;;;;;10.70;4.53;;;281.70;2278.40;;;;;;6276872;22;19999;-82
2022/11/23 00:12:47;;;;;;;10.65;5.60;;;281.70;2278.40;;;;;;6250294;22;20000;-82
2022/11/23 00:15:14;;;;;;;8.45;5.35;;;281.60;2278.40;;;;;;6249509;22;20027;-83
2022/11/23 00:17:40;;;;;;;7.78;4.10;;;281.60;2278.40;;;;;;6249732;22;20011;-84
2022/11/23 00:20:07;;;;;;;10.80;6.57;;;281.60;2278.40;;;;;;6276472;22;20436;-83
2022/11/23 00:22:34;;;;;;;12.55;6.43;;;256.90;2252.80;;;;;;6250295;22;20004;-82
2022/11/23 00:25:00;;;;;;;20.30;10.60;;;256.90;2252.80;;;;;;6277652;22;20081;-83
2022/11/23 00:27:26;;;;;;;14.07;8.30;;;256.80;2252.80;;;;;;6249798;22;20018;-83
2022/11/23 00:29:52;;;;;;;22.05;9.60;;;256.80;2252.80;;;;;;6277435;22;20027;-82
2022/11/23 00:32:17;;;;;;;25.00;12.50;;;256.80;2252.80;;;;;;6250052;22;20086;-82
2022/11/23 00:34:43;;;;;;;21.67;11.93;;;256.80;2252.80;;;;;;6249585;22;20006;-83
2022/11/23 00:37:09;;;;;;;21.60;11.48;;;256.60;2252.80;;;;;;6249892;22;20007;-81
2022/11/23 00:39:35;;;;;;;28.63;11.90;;;256.60;2252.80;;;;;;6276851;22;20429;-83
2022/11/23 00:42:00;;;;;;;22.92;12.20;;;256.60;2252.80;;;;;;6249783;22;20007;-83
2022/11/23 00:44:26;;;;;;;16.85;10.00;;;256.50;2252.80;;;;;;6249482;22;20417;-82
2022/11/23 00:46:52;;;;;;;10.30;6.00;;;256.50;2252.80;;;;;;6249810;22;20018;-82
2022/11/23 00:49:18;;;;;;;6.18;3.50;;;256.50;2048.00;;;;;;6275557;22;20431;-82
2022/11/23 00:51:44;;;;;;;5.30;2.58;;;256.50;2252.80;;;;;;6249828;22;20000;-83
2022/11/23 00:54:09;;;;;;;6.32;3.53;;;256.60;2252.80;;;;;;6249369;22;20007;-81
2022/11/23 00:56:35;;;;;;;7.25;3.33;;;256.60;2252.80;;;;;;6251233;22;19999;-84
2022/11/23 00:59:02;;;;;;;5.40;3.13;;;256.60;2252.80;;;;;;6264859;22;20010;-82
2022/11/23 01:01:32;;;;;;;4.47;2.78;;;256.60;2252.80;;;;;;6306533;22;20015;-83
2022/11/23 01:03:59;;;;;;;6.07;2.97;;;256.60;2252.80;;;;;;6280853;22;20015;-81
2022/11/23 01:06:30;;;;;;;5.53;2.97;;;256.50;2252.80;;;;;;6280761;22;20012;-83
2022/11/23 01:09:02;;;;;;;6.30;4.18;;;256.50;2252.80;;;;;;6254575;22;20321;-82
2022/11/23 01:11:30;;;;;;;5.75;3.47;;;256.50;2252.80;;;;;;6252312;22;20373;-82
2022/11/23 01:13:56;;;;;;;7.30;3.50;;;256.40;2252.80;;;;;;6251867;22;20721;-83
2022/11/23 01:16:34;;;;;;;6.88;3.65;;;256.40;2252.80;;;;;;6251595;22;20003;-81
2022/11/23 01:19:03;;;;;;;7.95;4.03;;;256.30;2252.80;;;;;;6278724;22;20016;-82
2022/11/23 01:21:30;;;;;;;4.82;3.17;;;256.20;2252.80;;;;;;6251515;22;20004;-83
2022/11/23 01:23:56;;;;;;;7.32;4.18;;;256.20;2252.80;;;;;;6251528;22;20460;-82
2022/11/23 01:26:22;;;;;;;5.65;3.75;;;256.20;2252.80;;;;;;6251865;22;20317;-82
2022/11/23 01:28:49;;;;;;;5.18;3.67;;;256.00;2252.80;;;;;;6278000;22;20398;-82
2022/11/23 01:31:20;;;;;;;5.55;3.53;;;256.00;2252.80;;;;;;6277819;22;20303;-83
2022/11/23 01:33:46;;;;;;;6.20;3.85;;;256.10;2252.80;;;;;;6277534;22;19996;-82
2022/11/23 01:36:18;;;;;;;7.47;4.63;;;256.10;2252.80;;;;;;6250997;22;20095;-82
2022/11/23 01:38:45;;;;;;;5.63;3.63;;;256.10;2252.80;;;;;;6251722;22;20012;-83
2022/11/23 01:41:17;;;;;;;7.70;4.55;;;256.10;2252.80;;;;;;6251637;22;20316;-82
2022/11/23 01:43:44;;;;;;;8.85;4.20;;;256.10;2252.80;;;;;;6278379;22;20075;-83
2022/11/23 01:46:10;;;;;;;6.68;3.88;;;256.10;2252.80;;;;;;6251586;22;20011;-82
2022/11/23 01:48:56;;;;;;;5.40;3.10;;;256.10;2252.80;;;;;;6251492;22;20008;-82
2022/11/23 01:51:30;;;;;;;5.82;3.30;;;256.10;2252.80;;;;;;6251222;22;20083;-83
2022/11/23 01:54:03;;;;;;;5.68;3.80;;;256.20;2252.80;;;;;;6251604;22;20041;-83
2022/11/23 01:56:35;;;;;;;9.35;4.00;;;256.20;2252.80;;;;;;6251586;22;20010;-83
2022/11/23 01:59:07;;;;;;;6.50;4.07;;;256.20;2252.80;;;;;;6251221;22;20433;-81
2022/11/23 02:01:33;;;;;;;5.45;3.08;;;256.20;2252.80;;;;;;6251461;22;20030;-83
2022/11/23 02:04:00;;;;;;;4.93;2.83;;;256.20;2252.80;;;;;;6251358;22;20004;-84
2022/11/23 02:06:27;;;;;;;4.53;2.72;;;256.20;2252.80;;;;;;6250978;22;20006;-83
2022/11/23 02:08:53;;;;;;;3.85;2.40;;;256.20;2252.80;;;;;;6250955;22;20004;-83
2022/11/23 02:11:18;;;;;;;5.53;3.17;;;256.20;1971.20;;;;;;6250898;22;20106;-83
2022/11/23 02:13:46;;;;;;;7.03;2.40;;;256.30;2252.80;;;;;;6251171;22;20010;-83
2022/11/23 02:16:13;;;;;;;6.85;3.17;;;256.30;2252.80;;;;;;6251368;22;19995;-82
2022/11/23 02:18:43;;;;;;;7.35;3.08;;;256.30;2252.80;;;;;;6250643;22;20309;-83
2022/11/23 02:21:09;;;;;;;5.80;3.15;;;256.30;2252.80;;;;;;6251298;22;20436;-82
2022/11/23 02:24:04;;;;;;;5.18;3.10;;;256.30;2252.80;;;;;;6251176;22;20004;-84
2022/11/23 02:26:35;;;;;;;6.40;3.60;;;256.30;2252.80;;;;;;6250963;22;20010;-83
2022/11/23 02:29:19;;;;;;;6.50;3.72;;;256.30;2252.80;;;;;;6251190;22;20004;-84
2022/11/23 02:31:45;;;;;;;5.65;3.72;;;256.30;2252.80;;;;;;6251291;22;20000;-82
2022/11/23 02:34:11;;;;;;;6.97;3.92;;;256.20;2252.80;;;;;;6250859;22;19999;-82
2022/11/23 02:36:44;;;;;;;7.97;3.45;;;256.20;2252.80;;;;;;6250603;22;20050;-82
2022/11/23 02:39:19;;;;;;;8.35;3.80;;;256.10;2252.80;;;;;;6250708;22;20392;-81
2022/11/23 02:41:48;;;;;;;6.65;4.35;;;256.10;1894.40;;;;;;6277153;22;20421;-83
2022/11/23 02:44:40;;;;;;;6.00;3.95;;;256.00;2252.80;;;;;;6251071;22;20003;-82
2022/11/23 02:47:07;;;;;;;9.45;4.38;;;231.30;2252.80;;;;;;6233986;22;20004;-82
2022/11/23 02:49:32;;;;;;;7.85;4.20;;;231.30;2252.80;;;;;;6251047;22;20011;-83
2022/11/23 02:51:59;;;;;;;7.80;4.20;;;231.30;2252.80;;;;;;6277827;22;20000;-83
2022/11/23 02:54:25;;;;;;;7.75;3.95;;;231.20;2252.80;;;;;;6250477;22;20026;-83
2022/11/23 02:56:51;;;;;;;5.70;3.38;;;231.00;2252.80;;;;;;6250650;22;20008;-83
2022/11/23 02:59:16;;;;;;;5.40;3.28;;;231.20;2252.80;;;;;;6250669;22;20006;-83
2022/11/23 03:01:42;;;;;;;39.97;13.38;;;231.30;2252.80;;;;;;6250189;22;20489;-82
2022/11/23 03:04:09;;;;;;;15.88;8.43;;;231.30;2252.80;;;;;;6250747;22;20003;-83
2022/11/23 03:06:35;;;;;;;9.55;5.32;;;231.20;2150.40;;;;;;6250899;22;20007;-83
2022/11/23 03:09:01;;;;;;;17.05;8.63;;;256.00;2252.80;;;;;;6277149;22;20365;-83
2022/11/23 03:11:27;;;;;;;17.52;7.60;;;231.20;2252.80;;;;;;6250666;22;19999;-83
2022/11/23 03:13:52;;;;;;;20.08;9.85;;;231.10;2252.80;;;;;;6277515;22;20087;-82
2022/11/23 03:16:18;;;;;;;12.13;5.13;;;231.10;2252.80;;;;;;6250270;22;20023;-82
2022/11/23 03:18:44;;;;;;;10.85;5.57;;;231.10;2252.80;;;;;;6250331;22;20095;-83
2022/11/23 03:21:10;;;;;;;11.57;5.70;;;231.10;2252.80;;;;;;6250266;22;20031;-81
2022/11/23 03:23:36;;;;;;;9.63;5.53;;;231.10;2252.80;;;;;;6277253;22;20010;-81
2022/11/23 03:26:03;;;;;;;10.43;5.15;;;231.10;2252.80;;;;;;6250242;22;20003;-82
2022/11/23 03:28:29;;;;;;;9.25;5.18;;;231.20;2252.80;;;;;;6250341;22;20050;-81
2022/11/23 03:30:55;;;;;;;12.38;6.97;;;231.20;1868.80;;;;;;6277398;22;20062;-82
2022/11/23 03:33:21;;;;;;;10.75;5.68;;;231.20;2048.00;;;;;;6250504;22;20024;-82
2022/11/23 03:35:47;;;;;;;11.60;6.00;;;231.20;2252.80;;;;;;6277392;22;20003;-82
2022/11/23 03:38:13;;;;;;;7.63;4.43;;;231.20;1996.80;;;;;;6250431;22;20004;-82
2022/11/23 03:40:39;;;;;;;5.47;3.78;;;231.10;2201.60;;;;;;6250492;22;20402;-81
2022/11/23 03:43:05;;;;;;;5.75;3.17;;;231.10;2252.80;;;;;;6250091;22;19999;-82
2022/11/23 03:45:31;;;;;;;5.25;2.70;;;231.10;2252.80;;;;;;6250534;22;20000;-83
2022/11/23 03:47:57;;;;;;;6.22;2.95;;;231.20;2252.80;;;;;;6250390;22;20091;-81
2022/11/23 03:50:23;;;;;;;6.22;3.33;;;231.20;2252.80;;;;;;6276966;22;20057;-82
2022/11/23 03:52:49;;;;;;;5.63;3.63;;;231.20;2252.80;;;;;;6250336;22;20034;-83
2022/11/23 03:55:15;;;;;;;10.40;4.70;;;231.20;2252.80;;;;;;6250400;22;20000;-82
2022/11/23 03:57:41;;;;;;;8.30;4.68;;;231.20;2252.80;;;;;;6249852;22;20429;-83
2022/11/23 04:00:08;;;;;;;14.93;6.13;;;231.30;2252.80;;;;;;6277407;22;20002;-83
2022/11/23 04:02:34;;;;;;;15.65;7.18;;;231.30;2252.80;;;;;;6277394;22;19996;-82
2022/11/23 04:05:00;;;;;;;16.48;7.63;;;231.20;2252.80;;;;;;6277057;22;20035;-83
2022/11/23 04:07:27;;;;;;;14.80;7.13;;;231.20;2252.80;;;;;;6250226;22;20014;-82
2022/11/23 04:09:52;;;;;;;9.77;4.78;;;231.20;2252.80;;;;;;6277040;22;20067;-82
2022/11/23 04:12:19;;;;;;;8.52;4.40;;;231.30;2252.80;;;;;;6249890;22;20031;-82
2022/11/23 04:14:44;;;;;;;9.35;4.47;;;231.20;2252.80;;;;;;6250145;22;20440;-83
2022/11/23 04:17:10;;;;;;;8.00;4.68;;;231.20;2252.80;;;;;;6250015;22;20007;-82
2022/11/23 04:19:36;;;;;;;11.43;7.10;;;231.20;2252.80;;;;;;6276704;22;20008;-82
2022/11/23 04:22:02;;;;;;;17.25;10.45;;;231.20;2252.80;;;;;;6250236;22;20000;-83
2022/11/23 04:24:28;;;;;;;7.63;4.60;;;231.20;2252.80;;;;;;6276621;22;19996;-82
2022/11/23 04:26:53;;;;;;;7.85;3.55;;;231.30;2252.80;;;;;;6250079;22;20004;-82
2022/11/23 04:29:19;;;;;;;29.77;13.77;;;256.20;2252.80;;;;;;6250045;22;20049;-83
2022/11/23 04:31:45;;;;;;;12.15;6.60;;;256.30;2252.80;;;;;;6249814;22;19996;-85
2022/11/23 04:34:11;;;;;;;6.75;3.90;;;256.40;2252.80;;;;;;6250006;22;20100;-83
2022/11/23 04:36:36;;;;;;;5.93;3.17;;;256.50;2252.80;;;;;;6276336;22;20003;-83
2022/11/23 04:39:03;;;;;;;7.57;4.15;;;256.70;2252.80;;;;;;6249569;22;20084;-84
2022/11/23 04:41:29;;;;;;;5.47;2.60;;;256.80;2252.80;;;;;;6248367;22;20099;-83
2022/11/23 04:43:55;;;;;;;5.07;2.30;;;256.80;2252.80;;;;;;6249996;22;20374;-83
2022/11/23 04:46:20;;;;;;;4.55;2.13;;;256.90;2252.80;;;;;;6276174;22;19996;-83
2022/11/23 04:48:46;;;;;;;11.30;6.45;;;281.60;2278.40;;;;;;6249151;22;20015;-83
2022/11/23 04:51:13;;;;;;;6.55;3.30;;;281.60;2278.40;;;;;;6249480;22;20009;-83
2022/11/23 04:53:39;;;;;;;9.10;4.13;;;281.60;2278.40;;;;;;6276423;22;20298;-85
2022/11/23 04:56:05;;;;;;;7.43;3.78;;;281.60;2278.40;;;;;;6249868;22;20033;-83
2022/11/23 04:58:31;;;;;;;3.50;2.10;;;281.60;2278.40;;;;;;6249523;22;20007;-84
2022/11/23 05:00:58;;;;;;;5.30;2.58;;;281.70;2278.40;;;;;;6249667;22;20068;-83
2022/11/23 05:03:24;;;;;;;5.60;2.92;;;281.70;2278.40;;;;;;6249839;22;20004;-84
2022/11/23 05:05:49;;;;;;;3.42;2.00;;;281.70;2278.40;;;;;;6250018;22;20303;-84
2022/11/23 05:08:15;;;;;;;3.83;2.00;;;281.80;2278.40;;;;;;6249358;22;20018;-81
2022/11/23 05:10:42;;;;;;;5.40;2.85;;;281.80;2278.40;;;;;;6277070;22;20007;-84
2022/11/23 05:13:08;;;;;;;7.85;4.00;;;281.90;2278.40;;;;;;6276224;22;20324;-82
2022/11/23 05:15:34;;;;;;;6.35;3.35;;;281.90;2278.40;;;;;;6276625;22;20022;-83
2022/11/23 05:18:01;;;;;;;5.53;3.20;;;281.90;2278.40;;;;;;6249809;22;20049;-83
2022/11/23 05:20:27;;;;;;;5.55;2.97;;;281.90;2278.40;;;;;;6276158;22;20016;-82
2022/11/23 05:22:52;;;;;;;7.57;3.95;;;282.00;2278.40;;;;;;6249785;22;20003;-83
2022/11/23 05:25:18;;;;;;;7.72;3.28;;;282.00;2278.40;;;;;;6249571;22;20000;-83
2022/11/23 05:27:44;;;;;;;4.05;2.20;;;281.90;2278.40;;;;;;6249457;22;20007;-82
2022/11/23 05:30:11;;;;;;;4.47;2.20;;;282.00;2278.40;;;;;;6249880;22;20038;-82
2022/11/23 05:32:36;;;;;;;3.83;2.13;;;282.10;2278.40;;;;;;6249694;22;19995;-83
2022/11/23 05:35:02;;;;;;;5.55;2.65;;;282.00;2278.40;;;;;;6249384;22;20054;-82
2022/11/23 05:37:28;;;;;;;5.45;2.95;;;281.90;2278.40;;;;;;6249777;22;20010;-82
2022/11/23 05:39:54;;;;;;;5.60;2.72;;;281.90;2278.40;;;;;;6249723;22;20000;-82
2022/11/23 05:42:19;;;;;;;4.82;2.17;;;281.90;2278.40;;;;;;6276554;22;20004;-83
2022/11/23 05:44:45;;;;;;;4.00;2.33;;;281.90;2278.40;;;;;;6275790;22;20007;-82
2022/11/23 05:47:11;;;;;;;7.47;3.28;;;281.90;2278.40;;;;;;6278426;22;20000;-83
2022/11/23 05:49:37;;;;;;;5.78;3.15;;;281.90;2278.40;;;;;;6276903;22;19995;-83
2022/11/23 05:52:03;;;;;;;4.10;2.25;;;281.90;2278.40;;;;;;6251291;22;20027;-78
2022/11/23 05:54:29;;;;;;;4.50;2.50;;;281.90;2278.40;;;;;;6251166;22;20078;-83
2022/11/23 05:56:54;;;;;;;3.55;1.73;;;281.90;2278.40;;;;;;6251179;22;20004;-80
2022/11/23 05:59:20;;;;;;;4.75;2.42;;;281.90;2278.40;;;;;;6251464;22;20003;-81
2022/11/23 06:01:46;;;;;;;6.05;3.58;;;281.90;2278.40;;;;;;6251513;22;20059;-79
2022/11/23 06:04:12;;;;;;;7.88;3.53;;;281.90;2278.40;;;;;;6251119;22;19999;-78
2022/11/23 06:06:38;;;;;;;7.60;4.40;;;281.90;2278.40;;;;;;6251299;22;20000;-79
2022/11/23 06:09:03;;;;;;;8.57;6.18;;;281.90;2278.40;;;;;;6251393;22;20129;-78
2022/11/23 06:11:30;;;;;;;7.15;4.72;;;281.90;2278.40;;;;;;6251032;22;19996;-79
2022/11/23 06:13:56;;;;;;;4.90;3.53;;;281.90;2278.40;;;;;;6249627;22;20000;-80
2022/11/23 06:16:22;;;;;;;6.28;3.90;;;281.90;2278.40;;;;;;6277408;22;20074;-79
2022/11/23 06:18:47;;;;;;;6.60;4.70;;;282.00;2278.40;;;;;;6276556;22;20065;-81
2022/11/23 06:21:13;;;;;;;8.25;4.85;;;282.00;2278.40;;;;;;6251386;22;20074;-81
2022/11/23 06:23:39;;;;;;;8.95;5.68;;;282.00;2278.40;;;;;;6250906;22;19999;-80
2022/11/23 06:26:05;;;;;;;6.85;5.78;;;282.00;2278.40;;;;;;6251324;22;20018;-81
2022/11/23 06:28:31;;;;;;;8.32;6.43;;;282.10;2278.40;;;;;;6251199;22;20089;-81
2022/11/23 06:31:03;;;;;;;6.97;4.95;;;282.10;2278.40;;;;;;6251044;22;20007;-84
2022/11/23 06:33:28;;;;;;;24.73;19.17;;;282.10;2278.40;;;;;;6251660;22;20036;-84
2022/11/23 06:35:57;;;;;;;25.13;16.80;;;282.20;2278.40;;;;;;6251201;22;20221;-84
2022/11/23 06:38:23;;;;;;;38.65;26.00;;;282.20;2278.40;;;;;;6251167;22;20369;-85
2022/11/23 06:40:49;;;;;;;18.40;11.95;;;282.20;2278.40;;;;;;6251564;22;19999;-81
2022/11/23 06:43:15;;;;;;;21.10;11.60;;;282.20;2278.40;;;;;;6278085;22;20053;-83
2022/11/23 06:45:41;;;;;;;19.00;9.82;;;282.20;2278.40;;;;;;6250980;22;20444;-83
2022/11/23 06:48:07;;;;;;;20.00;13.40;;;282.20;2278.40;;;;;;6251075;22;20008;-83
2022/11/23 06:50:33;;;;;;;14.98;12.43;;;282.20;2278.40;;;;;;6278010;22;20006;-84
2022/11/23 06:52:59;;;;;;;10.85;7.65;;;282.20;2278.40;;;;;;6251269;22;19995;-81
2022/11/23 06:55:25;;;;;;;11.50;7.40;;;282.20;2278.40;;;;;;6248210;22;20034;-80
2022/11/23 06:57:51;;;;;;;12.48;7.65;;;282.20;2278.40;;;;;;6250338;22;20014;-82
2022/11/23 07:00:18;;;;;;;15.38;8.63;;;282.20;2278.40;;;;;;6250095;22;20000;-84
2022/11/23 07:02:51;;;;;;;17.27;10.23;;;282.20;2278.40;;;;;;6251352;22;20086;-84
2022/11/23 07:05:16;;;;;;;19.67;12.43;;;282.20;2278.40;;;;;;6251395;22;20421;-83
2022/11/23 07:07:42;;;;;;;25.58;17.52;;;282.10;2278.40;;;;;;6251135;22;20027;-85
2022/11/23 07:10:08;;;;;;;38.05;28.48;;;282.10;2278.40;;;;;;6276425;22;19996;-85
2022/11/23 07:12:34;;;;;;;40.28;27.23;;;282.00;2278.40;;;;;;6248827;22;20384;-84
2022/11/23 07:15:00;;;;;;;39.08;25.10;;;282.00;2278.40;;;;;;6250271;22;20004;-84
2022/11/23 07:17:26;;;;;;;33.03;22.48;;;282.00;2278.40;;;;;;6276682;22;19996;-83
2022/11/23 07:19:51;;;;;;;48.22;33.42;;;282.00;2278.40;;;;;;6244238;23;20026;-85
2022/11/23 07:22:17;;;;;;;55.08;37.30;;;282.00;2278.40;;;;;;6245772;22;20447;-84
2022/11/23 07:24:43;;;;;;;62.00;41.17;;;282.00;2278.40;;;;;;6244699;22;20390;-84
2022/11/23 07:27:09;;;;;;;62.78;40.40;;;282.10;2278.40;;;;;;6246574;22;20008;-84
2022/11/23 07:29:34;;;;;;;109.63;66.80;;;282.10;2278.40;;;;;;6245759;22;20027;-84
2022/11/23 07:32:00;;;;;;;127.38;68.80;;;282.10;2278.40;;;;;;6245612;22;20007;-84
2022/11/23 07:34:29;;;;;;;112.57;66.38;;;282.10;2278.40;;;;;;6245169;22;20005;-84
2022/11/23 07:36:55;;;;;;;108.20;64.35;;;282.10;2278.40;;;;;;6246791;22;20000;-84
2022/11/23 07:39:21;;;;;;;115.82;67.68;;;282.50;2278.40;;;;;;6245584;22;20050;-84
2022/11/23 07:41:50;;;;;;;137.05;77.05;;;282.00;2278.40;;;;;;6245109;22;20001;-84
2022/11/23 07:44:16;;;;;;;105.55;62.42;;;282.10;2278.40;;;;;;6245548;22;20035;-84
2022/11/23 07:46:41;;;;;;;84.97;49.70;;;282.10;2278.40;;;;;;6245339;22;20303;-84
2022/11/23 07:49:07;;;;;;;72.78;43.08;;;282.10;2278.40;;;;;;6246421;22;19992;-84
2022/11/23 07:51:33;;;;;;;55.45;37.53;;;282.20;2278.40;;;;;;6245383;22;20007;-82
2022/11/23 07:53:59;;;;;;;29.02;21.13;;;282.20;2278.40;;;;;;6245462;22;20012;-83
2022/11/23 07:56:24;;;;;;;20.05;14.65;;;282.30;2278.40;;;;;;6246185;22;20475;-81
2022/11/23 07:58:50;;;;;;;25.63;15.48;;;282.30;2278.40;;;;;;6245370;22;20004;-82
2022/11/23 08:01:17;;;;;;;19.15;13.30;;;282.40;2278.40;;;;;;6247105;22;20000;-80
2022/11/23 08:03:47;;;;;;;26.08;14.30;;;282.40;2278.40;;;;;;6273936;22;20011;-81
2022/11/23 08:06:14;;;;;;;21.58;14.02;;;282.40;2278.40;;;;;;6269331;22;20008;-82
2022/11/23 08:08:41;;;;;;;19.52;14.38;;;282.40;2278.40;;;;;;6244540;22;20066;-81
2022/11/23 08:11:08;;;;;;;18.88;12.48;;;282.40;2278.40;;;;;;6246808;22;19999;-81
2022/11/23 08:13:36;;;;;;;28.55;19.30;;;282.40;2278.40;;;;;;6244078;22;20004;-79
2022/11/23 08:16:02;;;;;;;34.88;20.20;;;282.40;2278.40;;;;;;6246310;22;19993;-79
2022/11/23 08:18:28;;;;;;;26.00;18.05;;;282.50;2278.40;;;;;;6247299;22;20079;-81
2022/11/23 08:20:58;;;;;;;26.58;16.13;;;282.50;2278.40;;;;;;6276424;22;19995;-80
2022/11/23 08:23:24;;;;;;;24.02;15.57;;;282.50;2278.40;;;;;;6249428;22;20361;-81
2022/11/23 08:25:50;;;;;;;24.73;15.68;;;282.50;2278.40;;;;;;6249774;22;20004;-80
2022/11/23 08:28:16;;;;;;;21.88;16.73;;;307.20;2304.00;;;;;;6276719;22;20443;-80
2022/11/23 08:30:42;;;;;;;23.48;15.43;;;307.20;2304.00;;;;;;6277253;22;19996;-84
2022/11/23 08:33:09;;;;;;;16.52;12.57;;;307.20;2304.00;;;;;;6247186;22;20000;-83
2022/11/23 08:35:36;;;;;;;16.35;9.63;;;307.20;2304.00;;;;;;6250083;22;19996;-86
2022/11/23 08:38:06;;;;;;;13.80;9.95;;;307.20;2304.00;;;;;;6249329;22;20007;-84
2022/11/23 08:40:32;;;;;;;14.32;9.98;;;282.50;2278.40;;;;;;6249717;22;20095;-83
2022/11/23 08:42:58;;;;;;;15.48;11.10;;;282.50;2278.40;;;;;;6250441;22;20004;-86
2022/11/23 08:45:24;;;;;;;22.23;14.65;;;282.50;2278.40;;;;;;6249366;22;20479;-84
2022/11/23 08:47:50;;;;;;;26.27;18.02;;;282.50;2278.40;;;;;;6249841;22;20015;-85
2022/11/23 08:50:16;;;;;;;33.05;20.92;;;307.20;2304.00;;;;;;6248694;22;20032;-85
2022/11/23 08:52:42;;;;;;;27.52;18.13;;;307.20;2304.00;;;;;;6250760;22;19996;-86
2022/11/23 08:55:09;;;;;;;23.45;15.20;;;307.30;2304.00;;;;;;6250368;22;20010;-85
2022/11/23 08:57:34;;;;;;;20.30;12.30;;;307.30;2304.00;;;;;;6249842;22;20047;-85
2022/11/23 09:00:00;;;;;;;16.58;10.45;;;307.40;2304.00;;;;;;6249748;22;20004;-86
2022/11/23 09:02:26;;;;;;;16.02;8.23;;;307.50;2304.00;;;;;;6277568;22;20000;-86
2022/11/23 09:04:52;;;;;;;17.00;10.43;;;307.50;2304.00;;;;;;6249824;22;19999;-88
2022/11/23 09:07:18;;;;;;;13.23;7.90;;;307.60;2304.00;;;;;;6249964;22;20004;-85
2022/11/23 09:09:44;;;;;;;18.60;10.50;;;307.70;2304.00;;;;;;6250250;22;20027;-82
2022/11/23 09:12:09;;;;;;;19.38;12.52;;;307.60;2304.00;;;;;;6249430;22;20414;-83
2022/11/23 09:14:35;;;;;;;19.90;11.45;;;307.70;2304.00;;;;;;6249334;22;20024;-82
2022/11/23 09:17:02;;;;;;;24.95;12.75;;;307.80;2304.00;;;;;;6249769;22;20004;-81
2022/11/23 09:19:28;;;;;;;21.65;12.77;;;307.80;2304.00;;;;;;6247982;22;20437;-83
2022/11/23 09:21:54;;;;;;;22.00;14.75;;;307.80;2304.00;;;;;;6278664;22;19996;-83
2022/11/23 09:24:21;;;;;;;27.20;15.25;;;307.80;2304.00;;;;;;6278931;22;20051;-87
2022/11/23 09:26:47;;;;;;;27.10;15.77;;;307.90;2304.00;;;;;;6251614;22;20000;-85
2022/11/23 09:29:13;;;;;;;26.52;15.90;;;307.90;2304.00;;;;;;6279079;22;20006;-82
2022/11/23 09:31:38;;;;;;;23.27;13.75;;;308.00;2304.00;;;;;;6251821;22;20039;-84
2022/11/23 09:34:04;;;;;;;23.58;15.68;;;308.00;2304.00;;;;;;6251704;22;19996;-85
2022/11/23 09:36:30;;;;;;;22.25;15.63;;;308.10;2304.00;;;;;;6251826;22;20014;-87
2022/11/23 09:38:56;;;;;;;19.73;14.13;;;308.10;2304.00;;;;;;6251979;22;20008;-88
2022/11/23 09:41:43;;;;;;;28.50;17.65;;;308.10;2304.00;;;;;;6251764;22;20438;-87
2022/11/23 09:44:51;;;;;;;23.63;17.65;;;308.10;2304.00;;;;;;6279164;22;20000;-86
2022/11/23 09:47:22;;;;;;;31.75;20.85;;;308.10;2304.00;;;;;;6251692;22;20007;-86
2022/11/23 09:50:02;;;;;;;15.43;9.90;;;332.80;2329.60;;;;;;6251645;22;20004;-84
2022/11/23 09:52:29;;;;;;;19.55;12.25;;;332.80;2329.60;;;;;;6278907;22;20003;-85
2022/11/23 09:54:59;;;;;;;15.23;9.80;;;332.90;2329.60;;;;;;6251965;22;20087;-83
2022/11/23 09:57:30;;;;;;;17.83;9.93;;;332.90;2329.60;;;;;;6251695;22;20492;-86
2022/11/23 10:00:19;;;;;;;14.20;10.13;;;332.90;2329.60;;;;;;6251705;22;19999;-84
2022/11/23 10:02:46;;;;;;;17.88;10.23;;;332.90;2329.60;;;;;;6252055;22;20086;-85
2022/11/23 10:05:22;;;;;;;14.40;8.57;;;332.90;2329.60;;;;;;6251667;22;20433;-85
2022/11/23 10:08:25;;;;;;;18.30;9.50;;;332.90;2329.60;;;;;;6251962;22;20015;-85
2022/11/23 10:11:22;;;;;;;17.10;10.57;;;332.90;2329.60;;;;;;6253974;22;20004;-84
2022/11/23 10:14:13;;;;;;;19.83;12.77;;;332.90;2329.60;;;;;;6257315;22;20003;-84
2022/11/23 10:16:54;;;;;;;17.80;12.07;;;332.90;2329.60;;;;;;6252453;22;20010;-86
2022/11/23 10:19:23;;;;;;;21.15;13.38;;;332.90;2329.60;;;;;;6251346;22;20115;-82
2022/11/23 10:22:08;;;;;;;25.20;15.95;;;332.90;2329.60;;;;;;6251192;22;20317;-83
2022/11/23 10:24:49;;;;;;;30.02;18.50;;;332.90;2329.60;;;;;;6251697;22;20341;-83
2022/11/23 10:27:18;;;;;;;21.40;12.52;;;332.90;2329.60;;;;;;6278490;22;20026;-84
2022/11/23 10:29:44;;;;;;;22.90;16.63;;;332.90;2329.60;;;;;;6251190;22;20000;-83
2022/11/23 10:32:40;;;;;;;24.00;15.70;;;333.00;2329.60;;;;;;6251323;22;20334;-83
2022/11/23 10:35:13;;;;;;;18.90;11.65;;;333.10;2329.60;;;;;;6250939;22;20410;-84
2022/11/23 10:37:39;;;;;;;;;;;333.20;2329.60;;;;;;6252340;22;20010;-84
2022/11/23 10:40:22;;;;;;;24.30;15.20;;;333.20;2329.60;;;;;;6251306;22;19930;-85
2022/11/23 10:43:05;;;;;;;29.25;19.20;;;333.30;2329.60;;;;;;6251557;22;19999;-84
2022/11/23 10:45:31;;;;;;;30.45;21.65;;;333.40;2329.60;;;;;;6251820;22;20360;-84
2022/11/23 10:48:00;;;;;;;31.25;20.65;;;333.40;2329.60;;;;;;6251712;22;20008;-83
2022/11/23 10:50:36;;;;;;;35.80;24.50;;;333.40;2329.60;;;;;;6251329;22;20053;-82
2022/11/23 10:53:05;;;;;;;42.55;32.55;;;333.40;2329.60;;;;;;6251796;22;20007;-83
2022/11/23 10:55:58;;;;;;;21.80;16.17;;;333.50;2329.60;;;;;;6251894;22;20333;-84
2022/11/23 10:58:28;;;;;;;41.22;33.95;;;333.50;2329.60;;;;;;6251702;22;20012;-83
2022/11/23 11:01:03;;;;;;;11.32;7.88;;;333.50;2329.60;;;;;;6278622;22;20000;-83
2022/11/23 11:03:34;;;;;;;35.45;24.20;;;333.50;2329.60;;;;;;6253681;22;20002;-85
2022/11/23 11:06:00;;;;;;;20.52;15.93;;;333.50;2329.60;;;;;;6254149;22;20026;-84
2022/11/23 11:08:35;;;;;;;25.35;14.30;;;333.50;2329.60;;;;;;6251118;22;20015;-85
2022/11/23 11:11:06;;;;;;;27.17;20.38;;;333.60;2329.60;;;;;;6251404;22;20008;-85
2022/11/23 11:13:45;;;;;;;22.42;13.88;;;333.70;2329.60;;;;;;6251604;22;20053;-82
2022/11/23 11:16:31;;;;;;;20.00;11.93;;;333.70;2329.60;;;;;;6251217;22;20004;-82
2022/11/23 11:18:57;;;;;;;12.90;8.55;;;358.40;2329.60;;;;;;6250876;22;20539;-82
2022/11/23 11:21:31;;;;;;;18.05;10.82;;;358.50;2329.60;;;;;;6251498;22;20003;-87
2022/11/23 11:24:04;;;;;;;13.85;8.60;;;358.50;2329.60;;;;;;6253210;22;20007;-83
2022/11/23 11:26:32;;;;;;;22.77;15.05;;;358.50;2329.60;;;;;;6252384;22;20010;-84
2022/11/23 11:29:05;;;;;;;31.13;16.13;;;358.60;2329.60;;;;;;6252610;22;20011;-84
2022/11/23 11:31:49;;;;;;;12.70;7.22;;;358.60;2329.60;;;;;;6252979;22;20035;-85
2022/11/23 11:34:23;;;;;;;28.88;21.15;;;358.70;2329.60;;;;;;6251302;22;19996;-82
2022/11/23 11:36:56;;;;;;;21.20;13.23;;;358.70;2329.60;;;;;;6250483;22;20087;-85
2022/11/23 11:39:26;;;;;;;;;;;358.70;2329.60;;;;;;6251533;22;19999;-83
2022/11/23 11:41:53;;;;;;;24.70;18.25;;;358.70;2329.60;;;;;;6250061;22;20189;-83
2022/11/23 11:44:23;;;;;;;30.52;20.65;;;358.70;2329.60;;;;;;6250543;22;19999;-83
2022/11/23 11:46:59;;;;;;;25.35;17.70;;;358.70;2329.60;;;;;;6250575;22;20020;-83
2022/11/23 11:49:40;;;;;;;51.40;32.05;;;358.70;2329.60;;;;;;6250180;22;20007;-84
2022/11/23 11:52:20;;;;;;;31.33;21.00;;;358.70;2329.60;;;;;;6251051;22;20299;-84
2022/11/23 11:55:09;;;;;;;23.50;17.65;;;358.70;2329.60;;;;;;6251282;22;20091;-86
2022/11/23 11:57:47;;;;;;;30.83;19.42;;;358.70;2329.60;;;;;;6250850;22;20000;-83
2022/11/23 12:00:17;;;;;;;39.03;24.42;;;358.70;2329.60;;;;;;6249934;22;20003;-82
2022/11/23 12:02:58;;;;;;;44.83;27.15;;;358.70;2329.60;;;;;;6250465;22;20007;-82
2022/11/23 12:05:38;;;;;;;45.08;30.10;;;358.60;2329.60;;;;;;6250615;22;20019;-83
2022/11/23 12:08:16;;;;;;;51.05;34.15;;;358.60;2329.60;;;;;;6249946;22;20334;-81
2022/11/23 12:10:58;;;;;;;45.03;30.38;;;358.60;2329.60;;;;;;6249928;22;20011;-81
2022/11/23 12:13:33;;;;;;;52.97;33.78;;;358.60;2329.60;;;;;;6250483;22;20003;-81
2022/11/23 12:16:40;;;;;;;72.90;48.35;;;358.60;2329.60;;;;;;6249902;22;20003;-82